Atwood, Illinois
Current Conditions -  °F | °C
As of 7:02 PM on Monday 26 Jan 2015 (Local Time) from KCMI Reporting Station
Freezing Rain Freezing Rain  
Wind Chill: 19°   Ceiling: 400
Heat Index: 28°   Visibility: 2mi
Dew Point: 26°   Wind: 9mph
Humidity: 92%   Direction: 170°S
Pressure: 29.9"   Gusts: NA
Location:  39.8°N, 88.46°W
Report Text: KCMI 270102Z 17008KT 2SM -FZRA BR OVC004 M02/M03 A2990 RMK AO2 TWR VIS 2 1/2 FZRAB0057 CIG 003V007 P0000 I1000 T10221033
Loading
Personal Weather Stations






























Interactive Weather Map New forecast layout! Learn more

10-Day Weather Forecast

Advertisements
Track Severe Weather on mobile